sensor_id;sensor_type;location;lat;lon;timestamp;P1;durP1;ratioP1;P2;durP2;ratioP2
45522;SDS011;31254;51.680;5.394;2022-11-20T00:01:31;17.90;;;9.63;;
45522;SDS011;31254;51.680;5.394;2022-11-20T00:03:55;20.10;;;10.10;;
45522;SDS011;31254;51.680;5.394;2022-11-20T00:06:26;22.97;;;10.17;;
45522;SDS011;31254;51.680;5.394;2022-11-20T00:08:55;19.67;;;10.53;;
45522;SDS011;31254;51.680;5.394;2022-11-20T00:11:24;20.97;;;10.80;;
45522;SDS011;31254;51.680;5.394;2022-11-20T00:13:56;19.40;;;10.40;;
45522;SDS011;31254;51.680;5.394;2022-11-20T00:16:25;20.80;;;10.63;;
45522;SDS011;31254;51.680;5.394;2022-11-20T00:18:52;22.93;;;10.50;;
45522;SDS011;31254;51.680;5.394;2022-11-20T00:21:25;20.07;;;10.70;;
45522;SDS011;31254;51.680;5.394;2022-11-20T00:23:53;22.83;;;10.00;;
45522;SDS011;31254;51.680;5.394;2022-11-20T00:26:22;19.37;;;10.17;;
45522;SDS011;31254;51.680;5.394;2022-11-20T00:28:50;29.13;;;10.80;;
45522;SDS011;31254;51.680;5.394;2022-11-20T00:31:22;20.20;;;10.57;;
45522;SDS011;31254;51.680;5.394;2022-11-20T00:33:48;18.97;;;10.10;;
45522;SDS011;31254;51.680;5.394;2022-11-20T00:36:17;18.90;;;10.23;;
45522;SDS011;31254;51.680;5.394;2022-11-20T00:38:45;19.77;;;10.40;;
45522;SDS011;31254;51.680;5.394;2022-11-20T00:41:13;19.83;;;10.67;;
45522;SDS011;31254;51.680;5.394;2022-11-20T00:43:41;19.23;;;10.37;;
45522;SDS011;31254;51.680;5.394;2022-11-20T00:46:10;21.20;;;11.23;;
45522;SDS011;31254;51.680;5.394;2022-11-20T00:48:41;22.07;;;12.03;;
45522;SDS011;31254;51.680;5.394;2022-11-20T00:51:08;19.13;;;10.80;;
45522;SDS011;31254;51.680;5.394;2022-11-20T00:53:35;23.33;;;11.47;;
45522;SDS011;31254;51.680;5.394;2022-11-20T00:56:05;21.00;;;11.43;;
45522;SDS011;31254;51.680;5.394;2022-11-20T00:58:35;22.07;;;11.63;;
45522;SDS011;31254;51.680;5.394;2022-11-20T01:03:33;25.70;;;11.83;;
45522;SDS011;31254;51.680;5.394;2022-11-20T01:06:02;22.73;;;11.87;;
45522;SDS011;31254;51.680;5.394;2022-11-20T01:08:31;24.60;;;12.33;;
45522;SDS011;31254;51.680;5.394;2022-11-20T01:11:09;27.70;;;12.23;;
45522;SDS011;31254;51.680;5.394;2022-11-20T01:13:37;23.47;;;12.53;;
45522;SDS011;31254;51.680;5.394;2022-11-20T01:18:40;25.23;;;12.40;;
45522;SDS011;31254;51.680;5.394;2022-11-20T01:21:09;22.53;;;11.63;;
45522;SDS011;31254;51.680;5.394;2022-11-20T01:23:41;22.97;;;12.17;;
45522;SDS011;31254;51.680;5.394;2022-11-20T01:26:10;22.70;;;11.70;;
45522;SDS011;31254;51.680;5.394;2022-11-20T01:28:47;20.23;;;10.67;;
45522;SDS011;31254;51.680;5.394;2022-11-20T01:31:18;21.17;;;11.13;;
45522;SDS011;31254;51.680;5.394;2022-11-20T01:33:47;29.27;;;12.53;;
45522;SDS011;31254;51.680;5.394;2022-11-20T01:36:16;20.17;;;10.40;;
45522;SDS011;31254;51.680;5.394;2022-11-20T01:38:44;22.50;;;11.73;;
45522;SDS011;31254;51.680;5.394;2022-11-20T01:41:11;21.43;;;11.33;;
45522;SDS011;31254;51.680;5.394;2022-11-20T01:43:58;21.03;;;10.80;;
45522;SDS011;31254;51.680;5.394;2022-11-20T01:46:28;24.60;;;12.10;;
45522;SDS011;31254;51.680;5.394;2022-11-20T01:49:02;23.67;;;11.40;;
45522;SDS011;31254;51.680;5.394;2022-11-20T01:51:55;22.73;;;11.93;;
45522;SDS011;31254;51.680;5.394;2022-11-20T01:54:29;23.93;;;11.40;;
45522;SDS011;31254;51.680;5.394;2022-11-20T01:57:01;18.93;;;10.27;;
45522;SDS011;31254;51.680;5.394;2022-11-20T01:59:30;20.57;;;11.80;;
45522;SDS011;31254;51.680;5.394;2022-11-20T02:01:57;18.57;;;10.57;;
45522;SDS011;31254;51.680;5.394;2022-11-20T02:04:24;22.77;;;11.03;;
45522;SDS011;31254;51.680;5.394;2022-11-20T02:07:00;20.43;;;11.50;;
45522;SDS011;31254;51.680;5.394;2022-11-20T02:09:28;20.67;;;11.07;;
45522;SDS011;31254;51.680;5.394;2022-11-20T02:11:57;18.77;;;10.83;;
45522;SDS011;31254;51.680;5.394;2022-11-20T02:14:25;21.57;;;10.80;;
45522;SDS011;31254;51.680;5.394;2022-11-20T02:16:52;19.70;;;10.87;;
45522;SDS011;31254;51.680;5.394;2022-11-20T02:19:26;20.63;;;10.30;;
45522;SDS011;31254;51.680;5.394;2022-11-20T02:22:11;18.87;;;9.67;;
45522;SDS011;31254;51.680;5.394;2022-11-20T02:24:39;21.17;;;11.17;;
45522;SDS011;31254;51.680;5.394;2022-11-20T02:27:07;22.37;;;10.83;;
45522;SDS011;31254;51.680;5.394;2022-11-20T02:29:53;21.50;;;10.67;;
45522;SDS011;31254;51.680;5.394;2022-11-20T02:32:32;21.13;;;11.93;;
45522;SDS011;31254;51.680;5.394;2022-11-20T02:35:08;21.20;;;11.23;;
45522;SDS011;31254;51.680;5.394;2022-11-20T02:37:59;19.10;;;10.57;;
45522;SDS011;31254;51.680;5.394;2022-11-20T02:40:31;21.23;;;11.20;;
45522;SDS011;31254;51.680;5.394;2022-11-20T02:43:00;22.37;;;11.73;;
45522;SDS011;31254;51.680;5.394;2022-11-20T02:45:29;22.30;;;11.37;;
45522;SDS011;31254;51.680;5.394;2022-11-20T02:47:56;22.73;;;11.03;;
45522;SDS011;31254;51.680;5.394;2022-11-20T02:50:23;20.60;;;11.27;;
45522;SDS011;31254;51.680;5.394;2022-11-20T02:52:50;19.30;;;10.50;;
45522;SDS011;31254;51.680;5.394;2022-11-20T02:55:16;18.70;;;10.70;;
45522;SDS011;31254;51.680;5.394;2022-11-20T02:57:45;20.63;;;10.23;;
45522;SDS011;31254;51.680;5.394;2022-11-20T03:00:12;18.13;;;9.77;;
45522;SDS011;31254;51.680;5.394;2022-11-20T03:02:39;18.63;;;10.27;;
45522;SDS011;31254;51.680;5.394;2022-11-20T03:05:05;17.80;;;9.53;;
45522;SDS011;31254;51.680;5.394;2022-11-20T03:07:32;17.63;;;10.57;;
45522;SDS011;31254;51.680;5.394;2022-11-20T03:10:01;18.00;;;10.20;;
45522;SDS011;31254;51.680;5.394;2022-11-20T03:12:28;19.07;;;10.23;;
45522;SDS011;31254;51.680;5.394;2022-11-20T03:14:55;19.30;;;10.23;;
45522;SDS011;31254;51.680;5.394;2022-11-20T03:17:24;19.60;;;10.43;;
45522;SDS011;31254;51.680;5.394;2022-11-20T03:19:51;21.83;;;10.77;;
45522;SDS011;31254;51.680;5.394;2022-11-20T03:22:18;22.13;;;10.07;;
45522;SDS011;31254;51.680;5.394;2022-11-20T03:24:44;18.93;;;9.97;;
45522;SDS011;31254;51.680;5.394;2022-11-20T03:27:13;20.13;;;9.93;;
45522;SDS011;31254;51.680;5.394;2022-11-20T03:29:42;17.00;;;8.80;;
45522;SDS011;31254;51.680;5.394;2022-11-20T03:32:09;18.60;;;9.50;;
45522;SDS011;31254;51.680;5.394;2022-11-20T03:34:38;20.97;;;10.47;;
45522;SDS011;31254;51.680;5.394;2022-11-20T03:37:07;18.37;;;9.47;;
45522;SDS011;31254;51.680;5.394;2022-11-20T03:39:35;17.53;;;9.27;;
45522;SDS011;31254;51.680;5.394;2022-11-20T03:42:08;16.40;;;9.37;;
45522;SDS011;31254;51.680;5.394;2022-11-20T03:44:54;19.40;;;9.83;;
45522;SDS011;31254;51.680;5.394;2022-11-20T03:47:21;18.83;;;9.67;;
45522;SDS011;31254;51.680;5.394;2022-11-20T03:49:48;21.90;;;10.83;;
45522;SDS011;31254;51.680;5.394;2022-11-20T03:52:17;20.77;;;10.20;;
45522;SDS011;31254;51.680;5.394;2022-11-20T03:54:46;19.50;;;10.37;;
45522;SDS011;31254;51.680;5.394;2022-11-20T03:57:12;19.77;;;11.03;;
45522;SDS011;31254;51.680;5.394;2022-11-20T03:59:39;20.87;;;11.20;;
45522;SDS011;31254;51.680;5.394;2022-11-20T04:02:08;23.23;;;11.40;;
45522;SDS011;31254;51.680;5.394;2022-11-20T04:04:34;21.53;;;10.90;;
45522;SDS011;31254;51.680;5.394;2022-11-20T04:07:01;18.00;;;10.37;;
45522;SDS011;31254;51.680;5.394;2022-11-20T04:09:33;18.13;;;9.70;;
45522;SDS011;31254;51.680;5.394;2022-11-20T04:12:02;21.40;;;9.83;;
45522;SDS011;31254;51.680;5.394;2022-11-20T04:14:31;18.30;;;9.90;;
45522;SDS011;31254;51.680;5.394;2022-11-20T04:16:58;24.17;;;10.13;;
45522;SDS011;31254;51.680;5.394;2022-11-20T04:19:24;18.63;;;8.60;;
45522;SDS011;31254;51.680;5.394;2022-11-20T04:21:53;20.17;;;9.57;;
45522;SDS011;31254;51.680;5.394;2022-11-20T04:24:20;20.47;;;10.73;;
45522;SDS011;31254;51.680;5.394;2022-11-20T04:26:49;21.17;;;11.30;;
45522;SDS011;31254;51.680;5.394;2022-11-20T04:29:15;19.60;;;10.60;;
45522;SDS011;31254;51.680;5.394;2022-11-20T04:31:42;17.73;;;9.77;;
45522;SDS011;31254;51.680;5.394;2022-11-20T04:34:10;20.03;;;11.00;;
45522;SDS011;31254;51.680;5.394;2022-11-20T04:36:40;17.90;;;10.20;;
45522;SDS011;31254;51.680;5.394;2022-11-20T04:39:07;19.83;;;10.20;;
45522;SDS011;31254;51.680;5.394;2022-11-20T04:41:34;18.07;;;10.30;;
45522;SDS011;31254;51.680;5.394;2022-11-20T04:44:03;20.30;;;10.57;;
45522;SDS011;31254;51.680;5.394;2022-11-20T04:46:32;25.10;;;11.80;;
45522;SDS011;31254;51.680;5.394;2022-11-20T04:49:03;20.20;;;10.90;;
45522;SDS011;31254;51.680;5.394;2022-11-20T04:51:30;16.57;;;9.30;;
45522;SDS011;31254;51.680;5.394;2022-11-20T04:54:00;18.93;;;10.20;;
45522;SDS011;31254;51.680;5.394;2022-11-20T04:56:27;18.13;;;10.23;;
45522;SDS011;31254;51.680;5.394;2022-11-20T04:58:59;17.70;;;9.43;;
45522;SDS011;31254;51.680;5.394;2022-11-20T05:01:26;21.40;;;10.17;;
45522;SDS011;31254;51.680;5.394;2022-11-20T05:03:53;18.03;;;10.10;;
45522;SDS011;31254;51.680;5.394;2022-11-20T05:06:20;23.57;;;10.70;;
45522;SDS011;31254;51.680;5.394;2022-11-20T05:08:49;21.67;;;10.70;;
45522;SDS011;31254;51.680;5.394;2022-11-20T05:11:19;18.47;;;9.90;;
45522;SDS011;31254;51.680;5.394;2022-11-20T05:13:47;17.43;;;9.80;;
45522;SDS011;31254;51.680;5.394;2022-11-20T05:16:18;20.27;;;10.30;;
45522;SDS011;31254;51.680;5.394;2022-11-20T05:18:51;16.03;;;8.80;;
45522;SDS011;31254;51.680;5.394;2022-11-20T05:21:19;17.97;;;10.13;;
45522;SDS011;31254;51.680;5.394;2022-11-20T05:23:46;16.10;;;8.53;;
45522;SDS011;31254;51.680;5.394;2022-11-20T05:26:14;21.70;;;10.27;;
45522;SDS011;31254;51.680;5.394;2022-11-20T05:28:42;20.97;;;9.77;;
45522;SDS011;31254;51.680;5.394;2022-11-20T05:31:10;18.40;;;9.97;;
45522;SDS011;31254;51.680;5.394;2022-11-20T05:33:41;20.97;;;9.87;;
45522;SDS011;31254;51.680;5.394;2022-11-20T05:36:09;20.30;;;10.27;;
45522;SDS011;31254;51.680;5.394;2022-11-20T05:38:37;20.57;;;10.33;;
45522;SDS011;31254;51.680;5.394;2022-11-20T05:43:32;17.03;;;9.77;;
45522;SDS011;31254;51.680;5.394;2022-11-20T05:46:00;19.30;;;10.00;;
45522;SDS011;31254;51.680;5.394;2022-11-20T05:48:27;22.73;;;11.30;;
45522;SDS011;31254;51.680;5.394;2022-11-20T05:50:54;19.87;;;10.50;;
45522;SDS011;31254;51.680;5.394;2022-11-20T05:53:24;18.27;;;10.10;;
45522;SDS011;31254;51.680;5.394;2022-11-20T05:55:56;19.20;;;10.40;;
45522;SDS011;31254;51.680;5.394;2022-11-20T05:58:27;19.63;;;11.47;;
45522;SDS011;31254;51.680;5.394;2022-11-20T06:00:53;20.07;;;11.20;;
45522;SDS011;31254;51.680;5.394;2022-11-20T06:03:22;20.33;;;10.57;;
45522;SDS011;31254;51.680;5.394;2022-11-20T06:05:49;20.83;;;10.73;;
45522;SDS011;31254;51.680;5.394;2022-11-20T06:08:18;22.97;;;11.50;;
45522;SDS011;31254;51.680;5.394;2022-11-20T06:10:45;19.43;;;10.13;;
45522;SDS011;31254;51.680;5.394;2022-11-20T06:13:11;21.27;;;10.70;;
45522;SDS011;31254;51.680;5.394;2022-11-20T06:15:38;20.43;;;11.13;;
45522;SDS011;31254;51.680;5.394;2022-11-20T06:18:04;21.13;;;11.17;;
45522;SDS011;31254;51.680;5.394;2022-11-20T06:20:31;18.47;;;10.07;;
45522;SDS011;31254;51.680;5.394;2022-11-20T06:23:04;18.60;;;10.27;;
45522;SDS011;31254;51.680;5.394;2022-11-20T06:25:31;19.77;;;11.20;;
45522;SDS011;31254;51.680;5.394;2022-11-20T06:27:59;26.20;;;11.00;;
45522;SDS011;31254;51.680;5.394;2022-11-20T06:30:26;20.80;;;10.90;;
45522;SDS011;31254;51.680;5.394;2022-11-20T06:32:52;21.53;;;11.57;;
45522;SDS011;31254;51.680;5.394;2022-11-20T06:35:19;22.87;;;11.47;;
45522;SDS011;31254;51.680;5.394;2022-11-20T06:37:46;23.07;;;11.97;;
45522;SDS011;31254;51.680;5.394;2022-11-20T06:40:15;22.33;;;10.93;;
45522;SDS011;31254;51.680;5.394;2022-11-20T06:42:41;23.87;;;11.43;;
45522;SDS011;31254;51.680;5.394;2022-11-20T06:45:08;27.57;;;11.43;;
45522;SDS011;31254;51.680;5.394;2022-11-20T06:47:35;20.83;;;11.17;;
45522;SDS011;31254;51.680;5.394;2022-11-20T06:50:02;22.47;;;12.40;;
45522;SDS011;31254;51.680;5.394;2022-11-20T06:52:28;21.17;;;11.33;;
45522;SDS011;31254;51.680;5.394;2022-11-20T06:54:55;21.37;;;10.77;;
45522;SDS011;31254;51.680;5.394;2022-11-20T06:57:22;21.20;;;11.33;;
45522;SDS011;31254;51.680;5.394;2022-11-20T06:59:48;19.47;;;10.70;;
45522;SDS011;31254;51.680;5.394;2022-11-20T07:02:15;23.57;;;11.93;;
45522;SDS011;31254;51.680;5.394;2022-11-20T07:04:41;21.90;;;11.50;;
45522;SDS011;31254;51.680;5.394;2022-11-20T07:07:08;23.53;;;11.87;;
45522;SDS011;31254;51.680;5.394;2022-11-20T07:09:35;25.10;;;12.47;;
45522;SDS011;31254;51.680;5.394;2022-11-20T07:12:01;23.93;;;11.67;;
45522;SDS011;31254;51.680;5.394;2022-11-20T07:14:28;26.47;;;12.33;;
45522;SDS011;31254;51.680;5.394;2022-11-20T07:16:55;22.07;;;11.80;;
45522;SDS011;31254;51.680;5.394;2022-11-20T07:19:21;24.83;;;11.93;;
45522;SDS011;31254;51.680;5.394;2022-11-20T07:21:48;24.37;;;12.00;;
45522;SDS011;31254;51.680;5.394;2022-11-20T07:24:15;24.63;;;12.83;;
45522;SDS011;31254;51.680;5.394;2022-11-20T07:26:47;23.73;;;12.00;;
45522;SDS011;31254;51.680;5.394;2022-11-20T07:29:15;23.93;;;11.47;;
45522;SDS011;31254;51.680;5.394;2022-11-20T07:31:42;24.20;;;12.27;;
45522;SDS011;31254;51.680;5.394;2022-11-20T07:34:12;21.43;;;12.20;;
45522;SDS011;31254;51.680;5.394;2022-11-20T07:36:40;23.10;;;12.90;;
45522;SDS011;31254;51.680;5.394;2022-11-20T07:39:07;28.43;;;12.33;;
45522;SDS011;31254;51.680;5.394;2022-11-20T07:41:34;20.27;;;11.97;;
45522;SDS011;31254;51.680;5.394;2022-11-20T07:44:00;27.13;;;12.47;;
45522;SDS011;31254;51.680;5.394;2022-11-20T07:46:27;24.60;;;12.53;;
45522;SDS011;31254;51.680;5.394;2022-11-20T07:48:54;22.47;;;11.90;;
45522;SDS011;31254;51.680;5.394;2022-11-20T07:51:21;19.97;;;11.53;;
45522;SDS011;31254;51.680;5.394;2022-11-20T07:53:52;28.57;;;11.50;;
45522;SDS011;31254;51.680;5.394;2022-11-20T07:56:19;22.47;;;12.03;;
45522;SDS011;31254;51.680;5.394;2022-11-20T07:58:45;23.83;;;11.93;;
45522;SDS011;31254;51.680;5.394;2022-11-20T08:01:12;23.73;;;11.47;;
45522;SDS011;31254;51.680;5.394;2022-11-20T08:03:43;23.03;;;11.73;;
45522;SDS011;31254;51.680;5.394;2022-11-20T08:06:10;26.93;;;13.27;;
45522;SDS011;31254;51.680;5.394;2022-11-20T08:08:37;25.80;;;12.60;;
45522;SDS011;31254;51.680;5.394;2022-11-20T08:11:08;30.27;;;13.53;;
45522;SDS011;31254;51.680;5.394;2022-11-20T08:13:53;23.43;;;12.40;;
45522;SDS011;31254;51.680;5.394;2022-11-20T08:16:47;26.93;;;13.90;;
45522;SDS011;31254;51.680;5.394;2022-11-20T08:19:16;23.33;;;12.20;;
45522;SDS011;31254;51.680;5.394;2022-11-20T08:21:44;25.07;;;13.83;;
45522;SDS011;31254;51.680;5.394;2022-11-20T08:24:13;22.60;;;13.10;;
45522;SDS011;31254;51.680;5.394;2022-11-20T08:26:39;26.70;;;12.77;;
45522;SDS011;31254;51.680;5.394;2022-11-20T08:29:07;25.40;;;12.73;;
45522;SDS011;31254;51.680;5.394;2022-11-20T08:31:34;27.90;;;13.03;;
45522;SDS011;31254;51.680;5.394;2022-11-20T08:34:01;28.13;;;13.93;;
45522;SDS011;31254;51.680;5.394;2022-11-20T08:36:34;25.57;;;13.50;;
45522;SDS011;31254;51.680;5.394;2022-11-20T08:39:01;26.83;;;14.37;;
45522;SDS011;31254;51.680;5.394;2022-11-20T08:41:31;23.50;;;13.57;;
45522;SDS011;31254;51.680;5.394;2022-11-20T08:44:01;22.70;;;13.83;;
45522;SDS011;31254;51.680;5.394;2022-11-20T08:46:33;23.30;;;13.57;;
45522;SDS011;31254;51.680;5.394;2022-11-20T08:49:05;25.33;;;14.53;;
45522;SDS011;31254;51.680;5.394;2022-11-20T08:51:34;29.07;;;13.57;;
45522;SDS011;31254;51.680;5.394;2022-11-20T08:54:01;25.87;;;13.97;;
45522;SDS011;31254;51.680;5.394;2022-11-20T08:56:28;24.67;;;13.53;;
45522;SDS011;31254;51.680;5.394;2022-11-20T08:58:54;29.20;;;15.00;;
45522;SDS011;31254;51.680;5.394;2022-11-20T09:01:41;26.10;;;13.87;;
45522;SDS011;31254;51.680;5.394;2022-11-20T09:04:10;25.40;;;13.80;;
45522;SDS011;31254;51.680;5.394;2022-11-20T09:06:37;23.00;;;13.47;;
45522;SDS011;31254;51.680;5.394;2022-11-20T09:09:04;29.27;;;19.10;;
45522;SDS011;31254;51.680;5.394;2022-11-20T09:11:32;31.00;;;20.42;;
45522;SDS011;31254;51.680;5.394;2022-11-20T09:13:59;27.40;;;16.00;;
45522;SDS011;31254;51.680;5.394;2022-11-20T09:16:26;28.38;;;17.17;;
45522;SDS011;31254;51.680;5.394;2022-11-20T09:18:52;27.90;;;16.27;;
45522;SDS011;31254;51.680;5.394;2022-11-20T09:21:41;31.48;;;20.77;;
45522;SDS011;31254;51.680;5.394;2022-11-20T09:24:08;27.50;;;17.53;;
45522;SDS011;31254;51.680;5.394;2022-11-20T09:26:35;25.23;;;16.03;;
45522;SDS011;31254;51.680;5.394;2022-11-20T09:29:01;30.33;;;16.87;;
45522;SDS011;31254;51.680;5.394;2022-11-20T09:31:28;27.90;;;16.03;;
45522;SDS011;31254;51.680;5.394;2022-11-20T09:33:57;27.57;;;16.10;;
45522;SDS011;31254;51.680;5.394;2022-11-20T09:36:24;27.13;;;15.30;;
45522;SDS011;31254;51.680;5.394;2022-11-20T09:38:50;29.53;;;16.23;;
45522;SDS011;31254;51.680;5.394;2022-11-20T09:46:50;28.17;;;16.30;;
45522;SDS011;31254;51.680;5.394;2022-11-20T09:54:57;29.93;;;16.03;;
45522;SDS011;31254;51.680;5.394;2022-11-20T09:57:31;28.17;;;16.37;;
45522;SDS011;31254;51.680;5.394;2022-11-20T10:00:03;28.97;;;16.20;;
45522;SDS011;31254;51.680;5.394;2022-11-20T10:02:36;28.87;;;15.57;;
45522;SDS011;31254;51.680;5.394;2022-11-20T10:07:44;30.83;;;15.77;;
45522;SDS011;31254;51.680;5.394;2022-11-20T10:10:16;30.97;;;15.83;;
45522;SDS011;31254;51.680;5.394;2022-11-20T10:29:01;32.07;;;16.40;;
45522;SDS011;31254;51.680;5.394;2022-11-20T10:31:36;32.70;;;17.63;;
45522;SDS011;31254;51.680;5.394;2022-11-20T10:34:17;31.40;;;15.87;;
45522;SDS011;31254;51.680;5.394;2022-11-20T10:36:50;28.23;;;16.33;;
45522;SDS011;31254;51.680;5.394;2022-11-20T10:39:24;28.73;;;16.97;;
45522;SDS011;31254;51.680;5.394;2022-11-20T10:42:01;29.07;;;16.27;;
45522;SDS011;31254;51.680;5.394;2022-11-20T10:44:32;31.87;;;15.90;;
45522;SDS011;31254;51.680;5.394;2022-11-20T10:47:22;28.77;;;16.67;;
45522;SDS011;31254;51.680;5.394;2022-11-20T10:49:51;28.37;;;16.43;;
45522;SDS011;31254;51.680;5.394;2022-11-20T10:52:23;32.67;;;16.60;;
45522;SDS011;31254;51.680;5.394;2022-11-20T11:00:18;36.30;;;16.33;;
45522;SDS011;31254;51.680;5.394;2022-11-20T11:02:48;33.60;;;16.97;;
45522;SDS011;31254;51.680;5.394;2022-11-20T11:07:50;34.60;;;18.03;;
45522;SDS011;31254;51.680;5.394;2022-11-20T11:10:36;42.97;;;18.83;;
45522;SDS011;31254;51.680;5.394;2022-11-20T11:13:18;37.30;;;18.30;;
45522;SDS011;31254;51.680;5.394;2022-11-20T11:15:56;39.03;;;18.73;;
45522;SDS011;31254;51.680;5.394;2022-11-20T11:18:25;36.80;;;18.47;;
45522;SDS011;31254;51.680;5.394;2022-11-20T11:21:00;38.27;;;19.57;;
45522;SDS011;31254;51.680;5.394;2022-11-20T11:23:32;39.30;;;18.33;;
45522;SDS011;31254;51.680;5.394;2022-11-20T11:26:03;39.93;;;18.17;;
45522;SDS011;31254;51.680;5.394;2022-11-20T11:28:32;39.27;;;18.07;;
45522;SDS011;31254;51.680;5.394;2022-11-20T11:30:59;31.40;;;16.00;;
45522;SDS011;31254;51.680;5.394;2022-11-20T11:33:30;45.77;;;19.67;;
45522;SDS011;31254;51.680;5.394;2022-11-20T11:36:00;37.33;;;17.57;;
45522;SDS011;31254;51.680;5.394;2022-11-20T11:38:32;43.90;;;19.23;;
45522;SDS011;31254;51.680;5.394;2022-11-20T11:41:05;48.00;;;19.30;;
45522;SDS011;31254;51.680;5.394;2022-11-20T11:43:34;39.53;;;18.37;;
45522;SDS011;31254;51.680;5.394;2022-11-20T11:48:55;39.93;;;19.27;;
45522;SDS011;31254;51.680;5.394;2022-11-20T11:51:22;41.60;;;18.53;;
45522;SDS011;31254;51.680;5.394;2022-11-20T11:53:52;45.67;;;19.67;;
45522;SDS011;31254;51.680;5.394;2022-11-20T11:56:18;50.17;;;20.13;;
45522;SDS011;31254;51.680;5.394;2022-11-20T11:58:47;46.63;;;20.67;;
45522;SDS011;31254;51.680;5.394;2022-11-20T12:01:36;46.67;;;19.70;;
45522;SDS011;31254;51.680;5.394;2022-11-20T12:07:28;45.73;;;20.53;;
45522;SDS011;31254;51.680;5.394;2022-11-20T12:10:15;49.53;;;21.60;;
45522;SDS011;31254;51.680;5.394;2022-11-20T12:12:58;44.87;;;21.90;;
45522;SDS011;31254;51.680;5.394;2022-11-20T12:15:29;49.03;;;20.57;;
45522;SDS011;31254;51.680;5.394;2022-11-20T12:17:57;55.13;;;22.27;;
45522;SDS011;31254;51.680;5.394;2022-11-20T12:20:26;48.10;;;20.70;;
45522;SDS011;31254;51.680;5.394;2022-11-20T12:23:06;49.37;;;21.37;;
45522;SDS011;31254;51.680;5.394;2022-11-20T12:25:42;51.30;;;22.73;;
45522;SDS011;31254;51.680;5.394;2022-11-20T12:36:05;58.00;;;22.37;;
45522;SDS011;31254;51.680;5.394;2022-11-20T12:56:30;49.50;;;23.00;;
45522;SDS011;31254;51.680;5.394;2022-11-20T13:01:50;50.13;;;23.40;;
45522;SDS011;31254;51.680;5.394;2022-11-20T13:04:39;53.77;;;22.67;;
45522;SDS011;31254;51.680;5.394;2022-11-20T13:07:28;53.67;;;24.40;;
45522;SDS011;31254;51.680;5.394;2022-11-20T13:09:56;51.10;;;22.80;;
45522;SDS011;31254;51.680;5.394;2022-11-20T13:17:55;48.53;;;22.30;;
45522;SDS011;31254;51.680;5.394;2022-11-20T13:20:27;54.10;;;23.57;;
45522;SDS011;31254;51.680;5.394;2022-11-20T13:22:56;47.70;;;23.30;;
45522;SDS011;31254;51.680;5.394;2022-11-20T13:27:53;51.27;;;22.33;;
45522;SDS011;31254;51.680;5.394;2022-11-20T13:30:25;49.77;;;22.93;;
45522;SDS011;31254;51.680;5.394;2022-11-20T13:32:57;52.97;;;23.13;;
45522;SDS011;31254;51.680;5.394;2022-11-20T13:35:42;54.77;;;23.33;;
45522;SDS011;31254;51.680;5.394;2022-11-20T13:38:11;51.77;;;23.03;;
45522;SDS011;31254;51.680;5.394;2022-11-20T13:40:58;50.47;;;22.30;;
45522;SDS011;31254;51.680;5.394;2022-11-20T13:43:47;48.03;;;21.30;;
45522;SDS011;31254;51.680;5.394;2022-11-20T13:46:14;48.27;;;20.77;;
45522;SDS011;31254;51.680;5.394;2022-11-20T13:48:45;52.30;;;21.27;;
45522;SDS011;31254;51.680;5.394;2022-11-20T14:02:18;48.47;;;22.00;;
45522;SDS011;31254;51.680;5.394;2022-11-20T14:04:54;50.47;;;22.70;;
45522;SDS011;31254;51.680;5.394;2022-11-20T14:07:31;53.10;;;22.47;;
45522;SDS011;31254;51.680;5.394;2022-11-20T14:10:05;51.23;;;22.10;;
45522;SDS011;31254;51.680;5.394;2022-11-20T14:12:44;51.77;;;23.10;;
45522;SDS011;31254;51.680;5.394;2022-11-20T14:18:10;50.00;;;22.83;;
45522;SDS011;31254;51.680;5.394;2022-11-20T14:20:42;48.53;;;23.17;;
45522;SDS011;31254;51.680;5.394;2022-11-20T14:23:12;45.53;;;22.47;;
45522;SDS011;31254;51.680;5.394;2022-11-20T14:25:55;52.13;;;23.43;;
45522;SDS011;31254;51.680;5.394;2022-11-20T14:28:29;58.53;;;25.00;;
45522;SDS011;31254;51.680;5.394;2022-11-20T14:30:59;54.37;;;24.20;;
45522;SDS011;31254;51.680;5.394;2022-11-20T14:33:28;54.53;;;24.80;;
45522;SDS011;31254;51.680;5.394;2022-11-20T14:35:55;53.67;;;24.77;;
45522;SDS011;31254;51.680;5.394;2022-11-20T14:38:27;55.70;;;24.07;;
45522;SDS011;31254;51.680;5.394;2022-11-20T14:41:05;58.13;;;25.53;;
45522;SDS011;31254;51.680;5.394;2022-11-20T14:43:45;51.47;;;24.43;;
45522;SDS011;31254;51.680;5.394;2022-11-20T14:46:13;48.33;;;23.67;;
45522;SDS011;31254;51.680;5.394;2022-11-20T14:48:41;53.93;;;24.13;;
45522;SDS011;31254;51.680;5.394;2022-11-20T14:51:15;52.80;;;24.37;;
45522;SDS011;31254;51.680;5.394;2022-11-20T14:53:49;43.93;;;20.37;;
45522;SDS011;31254;51.680;5.394;2022-11-20T14:56:21;48.47;;;22.87;;
45522;SDS011;31254;51.680;5.394;2022-11-20T14:58:56;58.53;;;23.13;;
45522;SDS011;31254;51.680;5.394;2022-11-20T15:01:27;61.67;;;24.77;;
45522;SDS011;31254;51.680;5.394;2022-11-20T15:04:28;58.87;;;26.17;;
45522;SDS011;31254;51.680;5.394;2022-11-20T15:06:49;54.83;;;24.00;;
45522;SDS011;31254;51.680;5.394;2022-11-20T15:09:17;57.10;;;23.67;;
45522;SDS011;31254;51.680;5.394;2022-11-20T15:11:56;48.37;;;23.07;;
45522;SDS011;31254;51.680;5.394;2022-11-20T15:14:25;53.63;;;23.53;;
45522;SDS011;31254;51.680;5.394;2022-11-20T15:16:56;56.70;;;23.53;;
45522;SDS011;31254;51.680;5.394;2022-11-20T15:19:23;61.13;;;25.27;;
45522;SDS011;31254;51.680;5.394;2022-11-20T15:21:51;47.33;;;23.70;;
45522;SDS011;31254;51.680;5.394;2022-11-20T15:24:18;54.17;;;24.83;;
45522;SDS011;31254;51.680;5.394;2022-11-20T15:26:45;56.83;;;24.73;;
45522;SDS011;31254;51.680;5.394;2022-11-20T15:29:13;51.03;;;23.57;;
45522;SDS011;31254;51.680;5.394;2022-11-20T15:31:44;46.17;;;20.57;;
45522;SDS011;31254;51.680;5.394;2022-11-20T15:34:12;53.33;;;22.67;;
45522;SDS011;31254;51.680;5.394;2022-11-20T15:36:40;54.03;;;24.43;;
45522;SDS011;31254;51.680;5.394;2022-11-20T15:39:08;52.37;;;24.27;;
45522;SDS011;31254;51.680;5.394;2022-11-20T15:41:35;46.73;;;20.97;;
45522;SDS011;31254;51.680;5.394;2022-11-20T15:44:03;49.97;;;22.33;;
45522;SDS011;31254;51.680;5.394;2022-11-20T15:46:31;45.37;;;21.10;;
45522;SDS011;31254;51.680;5.394;2022-11-20T15:49:03;45.20;;;20.90;;
45522;SDS011;31254;51.680;5.394;2022-11-20T15:51:35;54.30;;;22.93;;
45522;SDS011;31254;51.680;5.394;2022-11-20T15:54:10;47.60;;;19.87;;
45522;SDS011;31254;51.680;5.394;2022-11-20T15:56:37;52.13;;;21.83;;
45522;SDS011;31254;51.680;5.394;2022-11-20T15:59:04;50.33;;;20.80;;
45522;SDS011;31254;51.680;5.394;2022-11-20T16:01:33;45.10;;;20.10;;
45522;SDS011;31254;51.680;5.394;2022-11-20T16:04:00;48.67;;;21.50;;
45522;SDS011;31254;51.680;5.394;2022-11-20T16:06:33;44.23;;;20.60;;
45522;SDS011;31254;51.680;5.394;2022-11-20T16:08:59;47.97;;;21.10;;
45522;SDS011;31254;51.680;5.394;2022-11-20T16:11:26;46.70;;;19.80;;
45522;SDS011;31254;51.680;5.394;2022-11-20T16:13:55;47.70;;;20.63;;
45522;SDS011;31254;51.680;5.394;2022-11-20T16:16:43;44.15;;;19.90;;
45522;SDS011;31254;51.680;5.394;2022-11-20T16:19:10;44.10;;;19.60;;
45522;SDS011;31254;51.680;5.394;2022-11-20T16:21:38;46.43;;;19.90;;
45522;SDS011;31254;51.680;5.394;2022-11-20T16:24:09;40.60;;;19.17;;